createdAt,value
2018-07-03T00:00:05.522Z,0.00
2018-07-03T00:01:05.524Z,0.00
2018-07-03T00:02:05.522Z,0.00
2018-07-03T00:03:05.524Z,0.00
2018-07-03T00:04:05.527Z,0.00
2018-07-03T00:05:05.526Z,0.00
2018-07-03T00:06:05.532Z,0.00
2018-07-03T00:07:05.531Z,0.00
2018-07-03T00:08:05.530Z,0.00
2018-07-03T00:09:05.531Z,0.00
2018-07-03T00:10:05.532Z,0.00
2018-07-03T00:11:05.532Z,0.00
2018-07-03T00:12:05.534Z,0.00
2018-07-03T00:13:05.538Z,0.00
2018-07-03T00:14:05.536Z,0.00
2018-07-03T00:15:05.537Z,0.00
2018-07-03T00:16:05.539Z,0.00
2018-07-03T00:17:05.540Z,0.00
2018-07-03T00:18:05.540Z,0.00
2018-07-03T00:19:05.540Z,0.00
2018-07-03T00:20:05.541Z,0.00
2018-07-03T00:21:05.544Z,0.00
2018-07-03T00:22:05.544Z,0.00
2018-07-03T00:23:05.545Z,0.00
2018-07-03T00:24:05.545Z,0.00
2018-07-03T00:25:05.549Z,0.00
2018-07-03T00:26:05.547Z,0.00
2018-07-03T00:27:05.548Z,0.00
2018-07-03T00:28:05.550Z,0.00
2018-07-03T00:29:05.551Z,0.00
2018-07-03T00:30:05.554Z,0.00
2018-07-03T00:31:05.552Z,0.00
2018-07-03T00:32:05.554Z,0.00
2018-07-03T00:33:05.555Z,0.00
2018-07-03T00:34:05.556Z,0.00
2018-07-03T00:35:05.556Z,0.00
2018-07-03T00:36:05.557Z,0.00
2018-07-03T00:37:05.558Z,0.00
2018-07-03T00:38:05.558Z,0.00
2018-07-03T00:39:05.560Z,0.00
2018-07-03T00:40:05.561Z,0.00
2018-07-03T00:41:05.561Z,0.00
2018-07-03T00:42:05.559Z,0.00
2018-07-03T00:43:05.562Z,0.00
2018-07-03T00:44:05.563Z,0.00
2018-07-03T00:45:05.565Z,0.00
2018-07-03T00:46:05.565Z,0.00
2018-07-03T00:47:05.567Z,0.00
2018-07-03T00:48:05.568Z,0.00
2018-07-03T00:49:05.568Z,0.00
2018-07-03T00:50:05.569Z,0.00
2018-07-03T00:51:05.568Z,0.00
2018-07-03T00:52:05.571Z,0.00
2018-07-03T00:53:05.571Z,0.00
2018-07-03T00:54:05.571Z,0.00
2018-07-03T00:55:05.573Z,0.00
2018-07-03T00:56:05.574Z,0.00
2018-07-03T00:57:05.576Z,0.00
2018-07-03T00:58:05.575Z,0.00
2018-07-03T00:59:05.576Z,0.00
2018-07-03T01:00:05.577Z,0.00
2018-07-03T01:01:05.579Z,0.00
2018-07-03T01:02:05.578Z,0.00
2018-07-03T01:03:05.579Z,0.00
2018-07-03T01:04:05.581Z,0.00
2018-07-03T01:05:05.580Z,0.00
2018-07-03T01:06:05.579Z,0.00
2018-07-03T01:07:05.580Z,0.00
2018-07-03T01:08:05.582Z,0.00
2018-07-03T01:09:05.582Z,0.00
2018-07-03T01:10:05.582Z,0.00
2018-07-03T01:11:05.584Z,0.00
2018-07-03T01:12:05.585Z,0.00
2018-07-03T01:13:05.586Z,0.00
2018-07-03T01:14:05.584Z,0.00
2018-07-03T01:15:05.585Z,0.00
2018-07-03T01:16:05.588Z,0.00
2018-07-03T01:17:05.587Z,0.00
2018-07-03T01:18:05.588Z,0.00
2018-07-03T01:19:05.588Z,0.00
2018-07-03T01:20:05.592Z,0.00
2018-07-03T01:21:05.591Z,0.00
2018-07-03T01:22:05.591Z,0.00
2018-07-03T01:23:05.591Z,0.00
2018-07-03T01:24:05.591Z,0.00
2018-07-03T01:25:05.593Z,0.00
2018-07-03T01:26:05.592Z,0.00
2018-07-03T01:27:05.593Z,0.00
2018-07-03T01:28:05.594Z,0.00
2018-07-03T01:29:05.615Z,0.00
2018-07-03T01:30:05.594Z,0.00
2018-07-03T01:31:05.595Z,0.00
2018-07-03T01:32:05.595Z,0.00
2018-07-03T01:33:05.601Z,0.00
2018-07-03T01:34:05.596Z,0.00
2018-07-03T01:35:05.597Z,0.00
2018-07-03T01:36:05.600Z,0.00
2018-07-03T01:37:05.606Z,0.00
2018-07-03T01:38:05.599Z,0.00
2018-07-03T01:39:05.600Z,0.00
2018-07-03T01:40:05.599Z,0.00
2018-07-03T01:41:05.608Z,0.00
2018-07-03T01:42:05.600Z,0.00
2018-07-03T01:43:05.603Z,0.00
2018-07-03T01:44:05.603Z,0.00
2018-07-03T01:45:05.604Z,0.00
2018-07-03T01:46:05.603Z,0.00
2018-07-03T01:47:05.603Z,0.00
2018-07-03T01:48:05.604Z,0.00
2018-07-03T01:49:05.606Z,0.00
2018-07-03T01:50:05.606Z,0.00
2018-07-03T01:51:05.606Z,0.00
2018-07-03T01:52:05.606Z,0.00
2018-07-03T01:53:05.607Z,0.00
2018-07-03T01:54:05.610Z,0.00
2018-07-03T01:55:05.609Z,0.00
2018-07-03T01:56:05.609Z,0.00
2018-07-03T01:57:05.608Z,0.00
2018-07-03T01:58:05.608Z,0.00
2018-07-03T01:59:05.610Z,0.00
2018-07-03T02:00:05.615Z,0.00
2018-07-03T02:01:05.611Z,0.00
2018-07-03T02:02:05.610Z,0.00
2018-07-03T02:03:05.614Z,0.00
2018-07-03T02:04:05.613Z,0.00
2018-07-03T02:05:05.615Z,0.00
2018-07-03T02:06:05.614Z,0.00
2018-07-03T02:07:05.615Z,0.00
2018-07-03T02:08:05.618Z,0.00
2018-07-03T02:09:05.619Z,0.00
2018-07-03T02:10:05.615Z,0.00
2018-07-03T02:11:05.617Z,0.00
2018-07-03T02:12:05.616Z,0.00
2018-07-03T02:13:05.620Z,0.00
2018-07-03T02:14:05.618Z,0.00
2018-07-03T02:15:05.617Z,0.00
2018-07-03T02:16:05.618Z,0.00
2018-07-03T02:17:05.619Z,0.00
2018-07-03T02:18:05.618Z,0.00
2018-07-03T02:19:05.620Z,0.00
2018-07-03T02:20:05.619Z,0.00
2018-07-03T02:21:05.620Z,0.00
2018-07-03T02:22:05.620Z,0.00
2018-07-03T02:23:05.620Z,0.00
2018-07-03T02:24:05.620Z,0.00
2018-07-03T02:25:05.622Z,0.00
2018-07-03T02:26:05.622Z,0.00
2018-07-03T02:27:05.622Z,0.00
2018-07-03T02:28:05.623Z,0.00
2018-07-03T02:29:05.623Z,0.00
2018-07-03T02:30:05.625Z,0.00
2018-07-03T02:31:05.624Z,0.00
2018-07-03T02:32:05.626Z,0.00
2018-07-03T02:33:05.626Z,0.00
2018-07-03T02:34:05.625Z,0.00
2018-07-03T02:35:05.626Z,0.00
2018-07-03T02:36:05.628Z,0.00
2018-07-03T02:37:05.628Z,0.00
2018-07-03T02:38:05.627Z,0.00
2018-07-03T02:39:05.670Z,0.00
2018-07-03T02:40:05.630Z,0.00
2018-07-03T02:41:05.629Z,0.00
2018-07-03T02:42:05.636Z,0.00
2018-07-03T02:43:05.628Z,0.00
2018-07-03T02:44:05.629Z,0.00
2018-07-03T02:45:05.630Z,0.00
2018-07-03T02:46:05.630Z,0.00
2018-07-03T02:47:05.629Z,0.00
2018-07-03T02:48:05.630Z,0.00
2018-07-03T02:49:05.631Z,0.00
2018-07-03T02:50:05.631Z,0.00
2018-07-03T02:51:05.631Z,0.00
2018-07-03T02:52:05.644Z,4.00
2018-07-03T02:53:05.632Z,0.00
2018-07-03T02:54:05.631Z,0.00
2018-07-03T02:55:05.632Z,4.00
2018-07-03T02:56:05.633Z,4.00
2018-07-03T02:57:05.637Z,0.00
2018-07-03T02:58:05.633Z,4.00
2018-07-03T02:59:05.635Z,4.00
2018-07-03T03:00:05.634Z,4.00
2018-07-03T03:01:05.634Z,4.00
2018-07-03T03:02:05.634Z,8.00
2018-07-03T03:03:05.634Z,8.00
2018-07-03T03:04:05.638Z,8.00
2018-07-03T03:05:05.635Z,8.00
2018-07-03T03:06:05.634Z,8.00
2018-07-03T03:07:05.635Z,8.00
2018-07-03T03:08:05.638Z,12.00
2018-07-03T03:09:05.637Z,12.00
2018-07-03T03:10:05.637Z,16.00
2018-07-03T03:11:05.638Z,16.00
2018-07-03T03:12:05.636Z,20.00
2018-07-03T03:13:05.637Z,20.00
2018-07-03T03:14:05.637Z,24.00
2018-07-03T03:15:05.638Z,28.00
2018-07-03T03:16:05.639Z,28.00
2018-07-03T03:17:05.637Z,32.00
2018-07-03T03:18:05.639Z,32.00
2018-07-03T03:19:05.637Z,36.00
2018-07-03T03:20:05.639Z,40.00
2018-07-03T03:21:05.638Z,40.00
2018-07-03T03:22:05.638Z,48.00
2018-07-03T03:23:05.637Z,52.00
2018-07-03T03:24:05.643Z,52.00
2018-07-03T03:25:05.639Z,60.00
2018-07-03T03:26:05.639Z,60.00
2018-07-03T03:27:05.638Z,64.00
2018-07-03T03:28:05.639Z,72.00
2018-07-03T03:29:05.640Z,72.00
2018-07-03T03:30:05.638Z,76.00
2018-07-03T03:31:05.639Z,84.00
2018-07-03T03:32:05.640Z,88.00
2018-07-03T03:33:05.639Z,92.00
2018-07-03T03:34:05.637Z,100.00
2018-07-03T03:35:05.641Z,104.00
2018-07-03T03:36:05.639Z,108.00
2018-07-03T03:37:05.638Z,116.00
2018-07-03T03:38:05.641Z,124.00
2018-07-03T03:39:05.639Z,128.00
2018-07-03T03:40:05.637Z,132.00
2018-07-03T03:41:05.637Z,140.00
2018-07-03T03:42:05.638Z,144.00
2018-07-03T03:43:05.637Z,152.00
2018-07-03T03:44:05.637Z,156.00
2018-07-03T03:45:05.687Z,164.00
2018-07-03T03:46:05.646Z,172.00
2018-07-03T03:47:05.637Z,176.00
2018-07-03T03:48:05.637Z,184.00
2018-07-03T03:49:05.637Z,188.00
2018-07-03T03:50:05.641Z,196.00
2018-07-03T03:51:05.638Z,204.00
2018-07-03T03:52:05.640Z,212.00
2018-07-03T03:53:05.637Z,216.00
2018-07-03T03:54:05.637Z,224.00
2018-07-03T03:55:05.638Z,236.00
2018-07-03T03:56:05.637Z,252.00
2018-07-03T03:57:05.636Z,264.00
2018-07-03T03:58:05.636Z,276.00
2018-07-03T03:59:05.637Z,292.00
2018-07-03T04:00:05.638Z,304.00
2018-07-03T04:01:05.637Z,324.00
2018-07-03T04:02:05.649Z,332.00
2018-07-03T04:03:05.636Z,344.00
2018-07-03T04:04:05.637Z,360.00
2018-07-03T04:05:05.638Z,384.00
2018-07-03T04:06:05.636Z,384.00
2018-07-03T04:07:05.636Z,372.00
2018-07-03T04:08:05.637Z,364.00
2018-07-03T04:09:05.637Z,360.00
2018-07-03T04:10:05.636Z,364.00
2018-07-03T04:11:05.636Z,372.00
2018-07-03T04:12:05.636Z,384.00
2018-07-03T04:13:05.637Z,416.00
2018-07-03T04:14:05.639Z,440.00
2018-07-03T04:15:05.638Z,464.00
2018-07-03T04:16:05.636Z,500.00
2018-07-03T04:17:05.638Z,536.00
2018-07-03T04:18:05.636Z,544.00
2018-07-03T04:19:05.641Z,564.00
2018-07-03T04:20:05.638Z,576.00
2018-07-03T04:21:05.638Z,580.00
2018-07-03T04:22:05.638Z,600.00
2018-07-03T04:23:05.639Z,648.00
2018-07-03T04:24:05.638Z,668.00
2018-07-03T04:25:05.640Z,636.00
2018-07-03T04:26:05.638Z,592.00
2018-07-03T04:27:05.640Z,576.00
2018-07-03T04:28:05.639Z,576.00
2018-07-03T04:29:05.641Z,552.00
2018-07-03T04:30:05.640Z,560.00
2018-07-03T04:31:05.641Z,596.00
2018-07-03T04:32:05.641Z,612.00
2018-07-03T04:33:05.642Z,632.00
2018-07-03T04:34:05.666Z,672.00
2018-07-03T04:35:05.641Z,692.00
2018-07-03T04:36:05.641Z,716.00
2018-07-03T04:37:05.641Z,756.00
2018-07-03T04:38:05.640Z,796.00
2018-07-03T04:39:05.642Z,824.00
2018-07-03T04:40:05.643Z,900.00
2018-07-03T04:41:05.642Z,980.00
2018-07-03T04:42:05.642Z,1084.00
2018-07-03T04:43:05.642Z,1180.00
2018-07-03T04:44:05.642Z,1160.00
2018-07-03T04:45:05.643Z,1148.00
2018-07-03T04:46:05.649Z,1120.00
2018-07-03T04:47:05.647Z,1076.00
2018-07-03T04:48:05.644Z,1044.00
2018-07-03T04:49:05.644Z,1088.00
2018-07-03T04:50:05.643Z,1092.00
2018-07-03T04:51:05.645Z,1112.00
2018-07-03T04:52:05.645Z,1096.00
2018-07-03T04:53:05.646Z,1136.00
2018-07-03T04:54:05.646Z,1180.00
2018-07-03T04:55:05.646Z,1228.00
2018-07-03T04:56:05.649Z,1408.00
2018-07-03T04:57:05.648Z,1564.00
2018-07-03T04:58:05.646Z,1572.00
2018-07-03T04:59:05.647Z,1688.00
2018-07-03T05:00:05.648Z,1732.00
2018-07-03T05:01:05.653Z,1712.00
2018-07-03T05:02:05.649Z,1600.00
2018-07-03T05:03:05.649Z,1640.00
2018-07-03T05:04:05.650Z,1688.00
2018-07-03T05:05:05.652Z,1720.00
2018-07-03T05:06:05.650Z,1860.00
2018-07-03T05:07:05.653Z,1812.00
2018-07-03T05:08:05.654Z,1760.00
2018-07-03T05:09:05.657Z,1836.00
2018-07-03T05:10:05.662Z,1928.00
2018-07-03T05:11:05.656Z,1888.00
2018-07-03T05:12:05.655Z,1944.00
2018-07-03T05:13:05.656Z,2100.00
2018-07-03T05:14:05.658Z,2188.00
2018-07-03T05:15:05.656Z,2252.00
2018-07-03T05:16:05.660Z,2176.00
2018-07-03T05:17:05.660Z,2236.00
2018-07-03T05:18:05.660Z,2268.00
2018-07-03T05:19:05.662Z,2336.00
2018-07-03T05:20:05.663Z,2472.00
2018-07-03T05:21:05.663Z,2520.00
2018-07-03T05:22:05.668Z,2548.00
2018-07-03T05:23:05.665Z,2536.00
2018-07-03T05:24:05.666Z,2668.00
2018-07-03T05:25:05.672Z,2624.00
2018-07-03T05:26:05.668Z,2580.00
2018-07-03T05:27:05.669Z,2656.00
2018-07-03T05:28:05.671Z,2720.00
2018-07-03T05:29:05.672Z,2812.00
2018-07-03T05:30:05.675Z,2772.00
2018-07-03T05:31:05.673Z,2944.00
2018-07-03T05:32:05.675Z,3248.00
2018-07-03T05:33:05.678Z,3216.00
2018-07-03T05:34:05.677Z,3124.00
2018-07-03T05:35:05.678Z,3096.00
2018-07-03T05:36:05.681Z,2948.00
2018-07-03T05:37:05.685Z,2804.00
2018-07-03T05:38:05.683Z,2704.00
2018-07-03T05:39:05.683Z,2640.00
2018-07-03T05:40:05.686Z,2616.00
2018-07-03T05:41:05.686Z,2544.00
2018-07-03T05:42:05.688Z,2468.00
2018-07-03T05:43:05.690Z,2424.00
2018-07-03T05:44:05.691Z,2416.00
2018-07-03T05:45:05.692Z,2492.00
2018-07-03T05:46:05.697Z,2572.00
2018-07-03T05:47:05.695Z,2644.00
2018-07-03T05:48:05.697Z,2676.00
2018-07-03T05:49:05.717Z,2592.00
2018-07-03T05:50:05.794Z,2520.00
2018-07-03T05:51:05.700Z,2576.00
2018-07-03T05:52:05.708Z,2760.00
2018-07-03T05:53:05.728Z,3124.00
2018-07-03T05:54:05.741Z,3244.00
2018-07-03T05:55:05.728Z,3180.00
2018-07-03T05:56:05.711Z,2976.00
2018-07-03T05:57:05.709Z,2724.00
2018-07-03T05:58:05.772Z,2692.00
2018-07-03T05:59:05.712Z,2328.00
2018-07-03T06:00:05.715Z,2384.00
2018-07-03T06:01:05.716Z,2512.00
2018-07-03T06:02:05.934Z,2852.00
2018-07-03T06:03:05.717Z,2836.00
2018-07-03T06:04:05.725Z,2736.00
2018-07-03T06:05:05.723Z,3292.00
2018-07-03T06:06:05.722Z,3112.00
2018-07-03T06:07:05.724Z,3272.00
2018-07-03T06:08:05.726Z,3480.00
2018-07-03T06:09:05.754Z,3392.00
2018-07-03T06:10:05.818Z,3808.00
2018-07-03T06:11:05.735Z,3532.00
2018-07-03T06:12:05.732Z,3572.00
2018-07-03T06:13:05.734Z,3552.00
2018-07-03T06:14:05.735Z,4036.00
2018-07-03T06:15:05.738Z,4108.00
2018-07-03T06:16:05.743Z,4192.00
2018-07-03T06:17:05.740Z,4084.00
2018-07-03T06:18:05.745Z,3996.00
2018-07-03T06:19:05.745Z,4000.00
2018-07-03T06:20:05.747Z,4308.00
2018-07-03T06:21:05.804Z,4496.00
2018-07-03T06:22:05.749Z,4740.00
2018-07-03T06:23:05.754Z,4424.00
2018-07-03T06:24:05.753Z,4484.00
2018-07-03T06:25:05.755Z,3724.00
2018-07-03T06:26:05.756Z,4472.00
2018-07-03T06:27:05.760Z,4944.00
2018-07-03T06:28:05.763Z,4336.00
2018-07-03T06:29:05.911Z,4232.00
2018-07-03T06:30:05.766Z,3344.00
2018-07-03T06:31:05.768Z,2932.00
2018-07-03T06:32:05.774Z,2688.00
2018-07-03T06:33:05.776Z,3024.00
2018-07-03T06:34:05.774Z,4484.00
2018-07-03T06:35:06.096Z,4756.00
2018-07-03T06:36:05.781Z,4112.00
2018-07-03T06:37:05.782Z,3600.00
2018-07-03T06:38:05.783Z,3460.00
2018-07-03T06:39:05.961Z,2688.00
2018-07-03T06:40:05.788Z,2900.00
2018-07-03T06:41:05.991Z,3084.00
2018-07-03T06:42:05.793Z,3624.00
2018-07-03T06:43:05.795Z,4048.00
2018-07-03T06:44:05.797Z,5016.00
2018-07-03T06:45:06.186Z,5936.00
2018-07-03T06:46:05.801Z,5524.00
2018-07-03T06:47:05.803Z,5648.00
2018-07-03T06:48:05.806Z,5636.00
2018-07-03T06:49:05.809Z,5088.00
2018-07-03T06:50:05.811Z,4352.00
2018-07-03T06:51:05.813Z,3812.00
2018-07-03T06:52:06.353Z,4068.00
2018-07-03T06:53:06.053Z,3764.00
2018-07-03T06:54:06.017Z,3844.00
2018-07-03T06:55:05.824Z,4852.00
2018-07-03T06:56:05.828Z,5100.00
2018-07-03T06:57:05.831Z,5484.00
2018-07-03T06:58:05.831Z,5500.00
2018-07-03T06:59:05.835Z,5272.00
2018-07-03T07:00:05.836Z,5036.00
2018-07-03T07:01:05.839Z,5488.00
2018-07-03T07:02:05.840Z,6600.00
2018-07-03T07:03:05.844Z,6284.00
2018-07-03T07:04:05.850Z,5692.00
2018-07-03T07:05:05.848Z,5320.00
2018-07-03T07:06:05.852Z,4764.00
2018-07-03T07:07:05.854Z,4300.00
2018-07-03T07:08:05.857Z,4472.00
2018-07-03T07:09:06.008Z,5104.00
2018-07-03T07:10:05.862Z,5392.00
2018-07-03T07:11:05.868Z,6284.00
2018-07-03T07:12:05.869Z,5624.00
2018-07-03T07:13:05.871Z,5400.00
2018-07-03T07:14:06.063Z,5424.00
2018-07-03T07:15:05.917Z,4736.00
2018-07-03T07:16:05.881Z,4896.00
2018-07-03T07:17:05.884Z,5428.00
2018-07-03T07:18:05.886Z,5256.00
2018-07-03T07:19:05.889Z,5980.00
2018-07-03T07:20:05.891Z,6900.00
2018-07-03T07:21:05.895Z,6256.00
2018-07-03T07:22:05.901Z,6372.00
2018-07-03T07:23:05.911Z,6708.00
2018-07-03T07:24:05.904Z,6540.00
2018-07-03T07:25:05.908Z,6708.00
2018-07-03T07:26:05.911Z,6764.00
2018-07-03T07:27:05.922Z,7292.00
2018-07-03T07:28:05.917Z,7400.00
2018-07-03T07:29:05.922Z,9352.00
2018-07-03T07:30:05.924Z,9352.00
2018-07-03T07:31:05.928Z,7736.00
2018-07-03T07:32:05.934Z,5368.00
2018-07-03T07:33:05.935Z,19776.00
2018-07-03T07:34:05.939Z,3516.00
2018-07-03T07:35:05.941Z,5808.00
2018-07-03T07:36:05.945Z,20224.00
2018-07-03T07:37:05.949Z,48640.00
2018-07-03T07:38:05.952Z,20192.00
2018-07-03T07:39:05.960Z,42240.00
2018-07-03T07:40:05.961Z,33760.00
2018-07-03T07:41:05.968Z,28288.00
2018-07-03T07:42:05.971Z,43584.00
2018-07-03T07:43:05.976Z,26144.00
2018-07-03T07:44:05.982Z,5008.00
2018-07-03T07:45:05.986Z,5616.00
2018-07-03T07:46:05.992Z,31296.00
2018-07-03T07:47:05.998Z,43680.00
2018-07-03T07:48:06.003Z,7592.00
2018-07-03T07:49:06.028Z,27680.00
2018-07-03T07:50:06.013Z,8984.00
2018-07-03T07:51:06.019Z,7812.00
2018-07-03T07:52:06.024Z,36480.00
2018-07-03T07:55:40.813Z,6224.00
2018-07-03T07:56:40.800Z,7312.00
2018-07-03T07:57:40.810Z,9956.00
2018-07-03T07:58:40.809Z,12112.00
2018-07-03T07:59:40.814Z,6660.00
2018-07-03T08:00:40.821Z,5752.00
2018-07-03T08:01:40.825Z,6128.00
2018-07-03T08:02:40.829Z,6772.00
2018-07-03T08:03:40.835Z,6876.00
2018-07-03T08:04:40.842Z,6020.00
2018-07-03T08:05:40.846Z,4992.00
2018-07-03T08:06:40.898Z,5124.00
2018-07-03T08:07:40.864Z,7096.00
2018-07-03T08:08:40.858Z,51296.00
2018-07-03T08:09:40.865Z,30848.00
2018-07-03T08:10:40.869Z,38624.00
2018-07-03T08:11:40.873Z,7356.00
2018-07-03T08:12:41.144Z,5548.00
2018-07-03T08:13:40.884Z,5152.00
2018-07-03T08:14:40.936Z,7644.00
2018-07-03T08:15:41.334Z,32224.00
2018-07-03T08:16:41.456Z,39616.00
2018-07-03T08:17:41.184Z,47136.00
2018-07-03T08:18:41.145Z,10460.00
2018-07-03T08:19:41.222Z,18144.00
2018-07-03T08:20:41.032Z,15672.00
2018-07-03T08:21:40.930Z,7292.00
2018-07-03T08:22:40.948Z,6140.00
2018-07-03T08:23:40.941Z,8344.00
2018-07-03T08:24:40.953Z,8800.00
2018-07-03T08:25:40.994Z,16256.00
2018-07-03T08:26:40.973Z,11712.00
2018-07-03T08:27:40.966Z,32224.00
2018-07-03T08:28:41.014Z,21184.00
2018-07-03T08:29:40.980Z,4880.00
2018-07-03T08:30:40.987Z,4088.00
2018-07-03T08:31:40.992Z,4680.00
2018-07-03T08:32:41.001Z,5668.00
2018-07-03T08:33:41.007Z,21664.00
2018-07-03T08:34:41.010Z,9336.00
2018-07-03T08:35:41.016Z,34752.00
2018-07-03T08:36:41.026Z,45856.00
2018-07-03T08:37:41.029Z,48096.00
2018-07-03T08:38:41.056Z,46528.00
2018-07-03T08:39:41.092Z,44544.00
2018-07-03T08:40:41.051Z,45152.00
2018-07-03T08:41:41.063Z,39616.00
2018-07-03T08:42:41.069Z,37088.00
2018-07-03T08:43:41.076Z,42688.00
2018-07-03T08:44:41.086Z,10536.00
2018-07-03T08:45:41.093Z,42176.00
2018-07-03T08:46:41.101Z,32640.00
2018-07-03T08:47:41.270Z,15000.00
2018-07-03T08:48:41.120Z,39488.00
2018-07-03T08:49:41.129Z,44640.00
2018-07-03T08:50:41.138Z,41504.00
2018-07-03T08:51:41.189Z,42592.00
2018-07-03T08:52:41.159Z,40992.00
2018-07-03T08:53:41.168Z,41664.00
2018-07-03T08:54:41.183Z,44832.00
2018-07-03T08:55:41.189Z,44416.00
2018-07-03T08:56:41.201Z,45056.00
2018-07-03T08:57:41.213Z,45344.00
2018-07-03T08:58:41.220Z,46240.00
2018-07-03T08:59:41.231Z,47232.00
2018-07-03T09:00:41.244Z,48352.00
2018-07-03T09:01:41.254Z,47680.00
2018-07-03T09:02:41.267Z,47552.00
2018-07-03T09:03:41.285Z,44384.00
2018-07-03T09:04:41.290Z,43744.00
2018-07-03T09:05:41.301Z,44736.00
2018-07-03T09:06:41.702Z,47232.00
2018-07-03T09:07:41.328Z,46400.00
2018-07-03T09:08:41.339Z,46688.00
2018-07-03T09:09:41.349Z,49024.00
2018-07-03T09:10:41.361Z,48384.00
2018-07-03T09:11:41.385Z,47104.00
2018-07-03T09:12:41.387Z,47744.00
2018-07-03T09:13:41.399Z,46752.00
2018-07-03T09:14:41.409Z,45248.00
2018-07-03T09:15:41.424Z,43264.00
2018-07-03T09:16:41.436Z,39744.00
2018-07-03T09:17:41.450Z,41952.00
2018-07-03T09:18:41.464Z,42464.00
2018-07-03T09:19:41.474Z,42400.00
2018-07-03T09:20:41.489Z,44096.00
2018-07-03T09:21:41.503Z,41600.00
2018-07-03T09:22:41.512Z,39968.00
2018-07-03T09:23:41.562Z,42144.00
2018-07-03T09:24:41.538Z,40960.00
2018-07-03T09:25:41.551Z,39680.00
2018-07-03T09:26:41.565Z,39456.00
2018-07-03T09:27:41.575Z,37920.00
2018-07-03T09:28:41.588Z,36896.00
2018-07-03T09:29:41.600Z,37344.00
2018-07-03T09:30:41.624Z,36896.00
2018-07-03T09:31:41.624Z,33664.00
2018-07-03T09:32:41.637Z,32608.00
2018-07-03T09:33:41.656Z,35552.00
2018-07-03T09:34:41.662Z,36736.00
2018-07-03T09:35:41.675Z,33888.00
2018-07-03T09:36:41.688Z,31360.00
2018-07-03T09:37:41.701Z,28640.00
2018-07-03T09:38:41.712Z,35360.00
2018-07-03T09:39:41.725Z,35232.00
2018-07-03T09:40:41.737Z,33216.00
2018-07-03T09:41:41.775Z,32928.00
2018-07-03T09:42:41.761Z,33888.00
2018-07-03T09:43:41.774Z,33664.00
2018-07-03T09:44:41.787Z,33216.00
2018-07-03T09:45:41.803Z,31776.00
2018-07-03T09:46:41.813Z,29152.00
2018-07-03T09:47:41.826Z,28608.00
2018-07-03T09:48:41.840Z,27072.00
2018-07-03T09:49:41.851Z,26304.00
2018-07-03T09:50:41.863Z,30912.00
2018-07-03T09:51:41.877Z,27680.00
2018-07-03T09:52:41.890Z,20672.00
2018-07-03T09:53:41.903Z,23360.00
2018-07-03T09:54:41.946Z,27264.00
2018-07-03T09:55:42.008Z,20256.00
2018-07-03T09:56:41.942Z,19232.00
2018-07-03T09:57:41.966Z,19712.00
2018-07-03T09:58:41.965Z,20256.00
2018-07-03T09:59:41.978Z,12792.00
2018-07-03T10:00:41.991Z,10064.00
2018-07-03T10:01:42.003Z,16512.00
2018-07-03T10:02:42.013Z,13432.00
2018-07-03T10:03:42.023Z,11504.00
2018-07-03T10:04:42.040Z,15744.00
2018-07-03T10:05:42.046Z,11136.00
2018-07-03T10:06:42.057Z,10472.00
2018-07-03T10:07:42.068Z,7952.00
2018-07-03T10:08:42.079Z,6608.00
2018-07-03T10:09:42.089Z,6728.00
2018-07-03T10:10:42.099Z,5936.00
2018-07-03T10:11:42.108Z,4748.00
2018-07-03T10:12:42.118Z,4104.00
2018-07-03T10:13:42.128Z,3212.00
2018-07-03T10:14:42.138Z,2868.00
2018-07-03T10:15:42.360Z,2632.00
2018-07-03T10:16:42.155Z,2348.00
2018-07-03T10:17:42.168Z,2016.00
2018-07-03T10:18:42.172Z,1872.00
2018-07-03T10:19:42.181Z,1740.00
2018-07-03T10:20:42.192Z,1608.00
2018-07-03T10:21:42.197Z,1604.00
2018-07-03T10:22:42.205Z,1816.00
2018-07-03T10:23:42.213Z,2000.00
2018-07-03T10:24:42.248Z,2000.00
2018-07-03T10:25:42.229Z,1880.00
2018-07-03T10:26:42.234Z,1944.00
2018-07-03T10:27:42.242Z,2212.00
2018-07-03T10:28:42.273Z,2516.00
2018-07-03T10:29:42.283Z,2796.00
2018-07-03T10:30:42.265Z,2868.00
2018-07-03T10:31:42.298Z,2724.00
2018-07-03T10:32:42.276Z,2700.00
2018-07-03T10:33:42.284Z,2540.00
2018-07-03T10:34:42.288Z,2080.00
2018-07-03T10:35:42.297Z,1752.00
2018-07-03T10:36:42.304Z,1708.00
2018-07-03T10:37:42.311Z,1756.00
2018-07-03T10:38:42.315Z,1772.00
2018-07-03T10:39:42.320Z,1772.00
2018-07-03T10:40:42.332Z,1784.00
2018-07-03T10:41:42.334Z,1768.00
2018-07-03T10:42:42.339Z,1732.00
2018-07-03T10:43:42.345Z,1740.00
2018-07-03T10:44:42.352Z,1784.00
2018-07-03T10:45:42.395Z,1796.00
2018-07-03T10:46:42.362Z,1816.00
2018-07-03T10:47:42.368Z,1912.00
2018-07-03T10:48:42.410Z,2020.00
2018-07-03T10:49:42.380Z,2248.00
2018-07-03T10:50:42.389Z,2600.00
2018-07-03T10:51:42.391Z,3024.00
2018-07-03T10:52:42.438Z,3196.00
2018-07-03T10:53:42.403Z,3304.00
2018-07-03T10:54:42.408Z,3340.00
2018-07-03T10:55:42.412Z,3144.00
2018-07-03T10:56:42.419Z,3144.00
2018-07-03T10:57:42.428Z,3008.00
2018-07-03T10:58:42.429Z,3004.00
2018-07-03T10:59:42.485Z,2488.00
2018-07-03T11:00:42.440Z,1888.00
2018-07-03T11:01:42.445Z,1536.00
2018-07-03T11:02:42.626Z,1256.00
2018-07-03T11:03:42.853Z,1092.00
2018-07-03T11:04:42.462Z,1000.00
2018-07-03T11:05:42.500Z,928.00
2018-07-03T11:06:42.471Z,892.00
2018-07-03T11:07:42.582Z,840.00
2018-07-03T11:08:42.578Z,780.00
2018-07-03T11:09:42.532Z,752.00
2018-07-03T11:10:42.524Z,716.00
2018-07-03T11:11:42.690Z,704.00
2018-07-03T11:12:42.543Z,692.00
2018-07-03T11:13:42.625Z,664.00
2018-07-03T11:14:42.573Z,624.00
2018-07-03T11:15:42.636Z,592.00
2018-07-03T11:16:42.725Z,552.00
2018-07-03T11:17:42.592Z,516.00
2018-07-03T11:18:42.520Z,488.00
2018-07-03T11:19:42.579Z,456.00
2018-07-03T11:20:42.528Z,440.00
2018-07-03T11:21:42.531Z,412.00
2018-07-03T11:22:42.566Z,396.00
2018-07-03T11:23:42.540Z,376.00
2018-07-03T11:24:42.542Z,368.00
2018-07-03T11:25:42.546Z,352.00
2018-07-03T11:26:42.548Z,348.00
2018-07-03T11:27:42.551Z,352.00
2018-07-03T11:28:42.555Z,372.00
2018-07-03T11:29:42.581Z,388.00
2018-07-03T11:30:42.562Z,408.00
2018-07-03T11:31:42.565Z,436.00
2018-07-03T11:32:42.569Z,464.00
2018-07-03T11:33:42.600Z,504.00
2018-07-03T11:34:42.670Z,520.00
2018-07-03T11:35:42.641Z,560.00
2018-07-03T11:36:42.583Z,584.00
2018-07-03T11:37:42.850Z,600.00
2018-07-03T11:38:42.590Z,616.00
2018-07-03T11:39:42.591Z,640.00
2018-07-03T11:40:42.594Z,656.00
2018-07-03T11:41:42.598Z,660.00
2018-07-03T11:42:42.606Z,660.00
2018-07-03T11:43:42.604Z,660.00
2018-07-03T11:44:42.611Z,664.00
2018-07-03T11:45:42.610Z,680.00
2018-07-03T11:46:43.453Z,724.00
2018-07-03T11:47:42.616Z,756.00
2018-07-03T11:48:42.618Z,792.00
2018-07-03T11:49:42.626Z,804.00
2018-07-03T11:50:42.625Z,784.00
2018-07-03T11:51:42.626Z,824.00
2018-07-03T11:52:42.630Z,844.00
2018-07-03T11:53:42.675Z,860.00
2018-07-03T11:54:42.637Z,876.00
2018-07-03T11:55:42.638Z,860.00
2018-07-03T11:56:42.643Z,860.00
2018-07-03T11:57:42.646Z,848.00
2018-07-03T11:58:42.653Z,860.00
2018-07-03T11:59:42.650Z,876.00
2018-07-03T12:00:42.655Z,908.00
2018-07-03T12:01:42.684Z,924.00
2018-07-03T12:02:42.660Z,924.00
2018-07-03T12:03:42.665Z,892.00
2018-07-03T12:04:42.667Z,876.00
2018-07-03T12:05:42.668Z,868.00
2018-07-03T12:06:42.672Z,876.00
2018-07-03T12:07:42.698Z,896.00
2018-07-03T12:08:42.677Z,920.00
2018-07-03T12:09:42.681Z,916.00
2018-07-03T12:10:42.681Z,928.00
2018-07-03T12:11:42.686Z,892.00
2018-07-03T12:12:42.690Z,888.00
2018-07-03T12:13:42.693Z,868.00
2018-07-03T12:14:42.696Z,860.00
2018-07-03T12:15:42.698Z,872.00
2018-07-03T12:16:42.701Z,908.00
2018-07-03T12:17:42.738Z,964.00
2018-07-03T12:18:42.707Z,1108.00
2018-07-03T12:19:42.779Z,1260.00
2018-07-03T12:20:42.718Z,1352.00
2018-07-03T12:21:42.716Z,1356.00
2018-07-03T12:22:42.724Z,1364.00
2018-07-03T12:23:42.721Z,1476.00
2018-07-03T12:24:42.727Z,1616.00
2018-07-03T12:25:42.729Z,1772.00
2018-07-03T12:26:42.731Z,1888.00
2018-07-03T12:27:42.734Z,2028.00